Latest Weather Observations for Parawa West

IDS60801

Issued at 1:12 pm CST Saturday 8 August 2020 (issued every 10 minutes, with the page automatically refreshed every 10 minutes)

About weather observations | Map of weather stations | Latest weather observations for SA | Other Formats
Station Details ID: 023875 Name: SECOND VALLEY FOREST AWS Lat: -35.57 Lon: 138.29 Height: 341.0 m
Data from the previous 72 hours. | See also: Recent months at Parawa West
Date/Time
CST
Temp
°C
App
Temp
°C
Dew
Point
°C
Rel
Hum
%
Delta-T
°C
Wind Press
QNH
hPa
Press
MSL
hPa
Rain since
9am
mm
Dir  Spd
km/h
Gust
km/h
Spd
kts
Gust
kts
08/01:00pm 8.4 3.5 8.3 99 0.0 SE 24 32 13 17 1011.6 1011.8 0.0
08/12:30pm 8.4 3.0 8.1 98 0.1 SE 26 35 14 19 1011.8 1012.0 0.0
08/12:00pm 8.3 2.5 8.0 98 0.1 SE 28 35 15 19 1011.9 1012.1 0.0
08/11:30am 8.4 2.3 8.1 98 0.1 SE 30 39 16 21 1012.0 1012.2 0.0
08/11:00am 8.4 1.9 8.1 98 0.1 SE 32 41 17 22 1012.0 1012.2 0.0
08/10:30am 8.3 1.8 8.0 98 0.1 SE 32 39 17 21 1012.0 1012.2 0.0
08/10:00am 8.1 1.9 8.0 99 0.0 SE 30 39 16 21 1011.8 1012.0 0.0
08/09:30am 7.9 2.1 7.8 99 0.0 SE 28 37 15 20 1011.9 1012.1 0.0
08/09:00am 7.8 1.6 7.7 99 0.0 SE 30 39 16 21 1011.8 1012.0 23.0
08/08:30am 7.8 1.9 7.7 99 0.0 SE 28 37 15 20 1011.7 1011.9 23.0
08/08:00am 7.6 2.5 7.5 99 0.0 SE 24 35 13 19 1011.4 1011.6 22.8
08/07:30am 7.6 2.1 7.5 99 0.0 SE 26 35 14 19 1011.2 1011.4 22.8
08/07:00am 7.5 1.2 7.4 99 0.0 SE 30 41 16 22 1010.7 1010.9 22.6
08/06:30am 7.5 1.2 7.4 99 0.0 SE 30 41 16 22 1010.3 1010.5 22.6
08/06:00am 7.4 1.5 7.3 99 0.0 SE 28 39 15 21 1010.0 1010.2 22.6
08/05:41am 7.4 1.5 7.3 99 0.0 SE 28 48 15 26 1009.8 1010.0 22.6
08/05:30am 7.3 0.6 7.2 99 0.0 SE 32 43 17 23 1009.8 1010.0 22.6
08/05:00am 7.3 1.0 7.2 99 0.0 SE 30 43 16 23 1009.8 1010.0 22.4
08/04:30am 7.3 0.6 7.2 99 0.0 SE 32 43 17 23 1009.7 1009.9 22.4
08/04:00am 7.2 -0.1 7.1 99 0.0 SE 35 46 19 25 1009.6 1009.8 22.0
08/03:30am 7.3 1.0 7.2 99 0.0 SE 30 46 16 25 1009.7 1009.9 21.8
08/03:08am 7.2 0.4 7.1 99 0.0 SE 32 50 17 27 1009.7 1009.9 21.6
08/03:00am 7.2 0.4 7.1 99 0.0 SE 32 43 17 23 1009.9 1010.1 21.2
08/02:30am 7.3 0.4 7.2 99 0.0 SE 33 48 18 26 1009.7 1009.9 21.0
08/02:11am 7.3 0.0 7.0 98 0.1 SE 35 56 19 30 1009.8 1010.0 20.4
08/02:00am 7.3 -0.4 7.0 98 0.1 SE 37 50 20 27 1009.7 1009.9 20.2
08/01:30am 7.4 -1.1 7.1 98 0.1 SE 41 52 22 28 1009.5 1009.7 19.6
08/01:00am 7.2 -0.9 6.9 98 0.1 SE 39 56 21 30 1009.4 1009.6 19.4
08/12:30am 7.1 -0.6 7.0 99 0.0 SE 37 48 20 26 1009.8 1010.0 18.6
08/12:00am 7.2 -1.6 7.1 99 0.0 SE 43 57 23 31 1010.1 1010.3 17.2
 
Date/Time
CST
Temp
°C
App
Temp
°C
Dew
Point
°C
Rel
Hum
%
Delta-T
°C
Wind Press
QNH
hPa
Press
MSL
hPa
Rain since
9am
mm
Dir  Spd
km/h
Gust
km/h
Spd
kts
Gust
kts
07/11:30pm 7.2 -1.3 7.1 99 0.0 SE 41 59 22 32 1010.2 1010.4 16.0
07/11:16pm 7.1 -1.0 7.0 99 0.0 SE 39 57 21 31 1010.2 1010.4 15.6
07/11:00pm 7.2 -1.6 7.1 99 0.0 SE 43 57 23 31 1010.4 1010.6 15.4
07/10:35pm 7.1 -1.0 6.8 98 0.1 SE 39 57 21 31 1010.7 1010.9 14.4
07/10:30pm 7.1 -1.0 6.8 98 0.1 SE 39 54 21 29 1010.7 1010.9 14.4
07/10:00pm 7.1 -1.8 6.8 98 0.1 SE 43 56 23 30 1010.9 1011.2 12.2
07/09:30pm 6.9 -0.9 6.6 98 0.1 SE 37 52 20 28 1011.3 1011.5 10.6
07/09:23pm 6.8 -1.0 6.5 98 0.1 SE 37 56 20 30 1011.5 1011.7 10.2
07/09:00pm 6.9 -1.3 6.6 98 0.1 SE 39 54 21 29 1011.4 1011.6 9.2
07/08:30pm 6.6 -2.1 6.0 96 0.3 SE 41 57 22 31 1011.8 1012.0 8.0
07/08:04pm 6.5 -1.4 6.1 97 0.2 SE 37 56 20 30 1012.0 1012.2 7.2
07/08:00pm 6.4 -2.0 5.8 96 0.3 SE 39 56 21 30 1012.0 1012.2 6.8
07/07:37pm 6.1 -1.2 5.4 95 0.3 SSE 33 52 18 28 1012.2 1012.4 5.4
07/07:30pm 6.0 -1.8 5.1 94 0.4 SSE 35 50 19 27 1012.2 1012.4 5.0
07/07:00pm 6.3 -2.5 5.4 94 0.4 SE 41 54 22 29 1012.1 1012.3 3.8
07/06:30pm 6.9 -0.2 6.3 96 0.3 SE 33 44 18 24 1011.8 1012.0 3.0
07/06:00pm 6.2 0.7 5.8 97 0.2 SSE 24 32 13 17 1011.6 1011.8 2.8
07/05:30pm 6.0 -0.4 5.4 96 0.3 SE 28 39 15 21 1011.5 1011.7 2.8
07/05:00pm 5.8 -1.0 5.2 96 0.3 SSE 30 39 16 21 1011.5 1011.7 2.6
07/04:30pm 5.9 -1.5 4.9 93 0.4 SE 33 43 18 23 1011.5 1011.7 2.0
07/04:00pm 6.0 -1.8 4.8 92 0.5 SE 35 54 19 29 1011.6 1011.8 1.8
07/03:35pm 6.0 -0.5 4.5 90 0.7 SE 28 50 15 27 1011.8 1012.0 1.0
07/03:30pm 5.9 0.1 4.5 91 0.6 SE 24 35 13 19 1012.1 1012.3 1.0
07/03:00pm 7.2 0.6 4.3 82 1.3 SE 28 39 15 21 1012.1 1012.3 0.0
07/02:30pm 7.4 0.4 4.0 79 1.5 SE 30 41 16 22 1011.8 1012.0 0.0
07/02:00pm 7.5 1.4 4.8 83 1.2 SE 26 37 14 20 1011.7 1011.9 0.0
07/01:30pm 7.3 0.4 4.8 84 1.1 SE 30 41 16 22 1011.8 1012.0 0.0
07/01:00pm 7.3 0.0 4.6 83 1.2 SE 32 41 17 22 1012.1 1012.3 0.0
07/12:30pm 7.3 0.0 4.6 83 1.2 SE 32 41 17 22 1012.7 1012.9 0.0
07/12:00pm 7.4 0.9 4.5 82 1.3 SE 28 35 15 19 1013.0 1013.2 0.0
07/11:30am 7.2 1.0 4.5 83 1.2 SE 26 35 14 19 1013.4 1013.7 0.0
07/11:00am 7.0 1.2 4.5 84 1.1 SE 24 35 13 19 1013.6 1013.9 0.0
07/10:30am 6.9 0.9 5.1 88 0.8 SE 26 33 14 18 1014.0 1014.3 0.0
07/10:00am 7.0 2.1 5.2 88 0.8 SE 20 32 11 17 1014.4 1014.6 0.0
07/09:30am 6.9 1.6 4.9 87 0.9 SE 22 32 12 17 1014.6 1014.8 0.0
07/09:00am 6.9 1.2 4.7 86 1.0 SE 24 33 13 18 1014.9 1015.1 0.0
07/08:30am 6.9 0.8 4.7 86 1.0 SE 26 37 14 20 1014.5 1014.7 0.0
07/08:00am 6.9 -0.3 4.9 87 0.9 SE 32 46 17 25 1014.6 1014.8 0.0
07/07:30am 7.0 0.2 5.2 88 0.8 SE 30 39 16 21 1015.1 1015.3 0.0
07/07:00am 7.1 0.4 5.4 89 0.8 SE 30 41 16 22 1015.1 1015.3 0.0
07/06:30am 7.2 0.5 5.8 91 0.6 SE 30 50 16 27 1015.2 1015.4 0.0
07/06:21am 7.3 0.3 5.9 91 0.6 SE 32 50 17 27 1015.1 1015.3 0.0
07/06:00am 7.4 0.4 5.9 90 0.7 SE 32 43 17 23 1015.4 1015.6 0.0
07/05:30am 7.4 0.4 5.9 90 0.7 ESE 32 43 17 23 1015.4 1015.6 0.0
07/05:00am 7.4 1.2 6.2 92 0.6 ESE 28 35 15 19 1015.6 1015.8 0.0
07/04:30am 7.6 2.6 6.5 93 0.5 ESE 22 33 12 18 1015.8 1016.0 0.0
07/04:00am 7.8 3.2 6.7 93 0.5 ESE 20 30 11 16 1016.1 1016.4 0.0
07/03:30am 8.0 2.6 6.5 90 0.7 ESE 24 33 13 18 1016.6 1016.9 0.0
07/03:00am 7.9 3.2 5.9 87 0.9 SE 20 28 11 15 1016.5 1016.8 0.0
07/02:30am 7.9 2.4 5.7 86 1.0 ESE 24 35 13 19 1017.0 1017.3 0.0
07/02:00am 8.1 2.9 5.6 84 1.1 ESE 22 30 12 16 1017.1 1017.4 0.0
07/01:30am 7.8 3.3 4.4 79 1.5 ESE 17 22 9 12 1017.5 1017.7 0.0
07/01:00am 7.8 3.3 4.4 79 1.5 ESE 17 22 9 12 1017.7 1017.9 0.0
07/12:30am 7.8 2.8 4.6 80 1.4 ESE 20 33 11 18 1017.8 1018.0 0.0
07/12:00am 7.6 2.6 4.7 82 1.3 ESE 20 30 11 16 1018.0 1018.2 0.0
 
Date/Time
CST
Temp
°C
App
Temp
°C
Dew
Point
°C
Rel
Hum
%
Delta-T
°C
Wind Press
QNH
hPa
Press
MSL
hPa
Rain since
9am
mm
Dir  Spd
km/h
Gust
km/h
Spd
kts
Gust
kts
06/11:30pm 7.3 1.9 4.3 81 1.3 ESE 22 32 12 17 1018.0 1018.2 0.0
06/11:00pm 7.5 0.5 4.3 80 1.4 ESE 30 37 16 20 1017.9 1018.1 0.0
06/10:30pm 7.3 1.1 4.3 81 1.3 ESE 26 33 14 18 1018.0 1018.2 0.0
06/10:00pm 7.3 1.1 4.1 80 1.4 ESE 26 33 14 18 1018.4 1018.7 0.0
06/09:30pm 7.2 1.4 4.2 81 1.3 ESE 24 32 13 17 1018.6 1018.9 0.0
06/09:00pm 7.1 2.0 4.1 81 1.3 ESE 20 30 11 16 1018.9 1019.2 0.0
06/08:30pm 7.2 1.4 4.3 82 1.3 ESE 24 32 13 17 1019.0 1019.3 0.0
06/08:00pm 7.4 2.1 4.9 84 1.1 ESE 22 32 12 17 1019.0 1019.3 0.0
06/07:30pm 6.9 1.4 4.0 82 1.3 SE 22 32 12 17 1018.7 1019.0 0.0
06/07:00pm 6.7 1.2 3.9 82 1.2 SE 22 33 12 18 1018.6 1018.9 0.0
06/06:30pm 6.4 1.2 3.6 82 1.2 SE 20 28 11 15 1018.5 1018.8 0.0
06/06:00pm 6.3 0.7 3.3 81 1.3 SE 22 28 12 15 1018.3 1018.5 0.0
06/05:30pm 6.3 1.1 3.3 81 1.3 SE 20 26 11 14 1018.1 1018.3 0.0
06/05:00pm 6.5 0.9 3.5 81 1.3 ESE 22 30 12 16 1017.8 1018.0 0.0
06/04:30pm 6.8 1.6 3.6 80 1.4 SE 20 26 11 14 1017.6 1017.8 0.0
06/04:00pm 6.9 1.3 3.7 80 1.4 ESE 22 30 12 16 1017.8 1018.0 0.0
06/03:30pm 7.2 1.8 4.3 82 1.3 ESE 22 32 12 17 1017.7 1017.9 0.0
06/03:00pm 6.8 1.3 4.1 83 1.2 ESE 22 33 12 18 1017.6 1017.8 0.0
06/02:30pm 7.1 1.6 4.1 81 1.3 E 22 32 12 17 1017.8 1018.0 0.0
06/02:00pm 7.4 1.5 4.0 79 1.5 E 24 33 13 18 1017.8 1018.0 0.0
06/01:30pm 7.1 1.3 4.2 82 1.3 ESE 24 33 13 18 1017.8 1018.0 0.0
06/01:00pm 6.4 0.5 3.7 83 1.2 E 24 32 13 17 1018.4 1018.7 0.0
06/12:30pm 6.5 0.2 3.7 82 1.2 E 26 33 14 18 1019.0 1019.3 0.0
06/12:00pm 6.3 0.8 3.8 84 1.1 E 22 30 12 16 1019.3 1019.6 0.0
06/11:30am 5.8 -0.1 3.8 87 0.9 E 24 33 13 18 1019.7 1020.0 0.0
06/11:00am 5.6 -0.3 3.8 88 0.8 E 24 33 13 18 1020.0 1020.3 0.0
06/10:30am 5.6 0.5 4.1 90 0.6 E 20 28 11 15 1020.0 1020.3 0.0
06/10:00am 4.8 -1.2 3.5 91 0.6 E 24 33 13 18 1019.9 1020.2 0.0
06/09:30am 4.9 -0.7 3.2 89 0.7 E 22 28 12 15 1020.1 1020.4 0.0
06/09:00am 4.8 -0.5 3.1 89 0.7 E 20 28 11 15 1020.2 1020.5 0.0
06/08:30am 4.8 -0.3 3.0 88 0.8 E 19 24 10 13 1020.1 1020.4 0.0
06/08:00am 4.4 -0.4 2.8 89 0.7 ENE 17 22 9 12 1020.2 1020.5 0.0
06/07:30am 4.2 -0.6 2.4 88 0.7 E 17 22 9 12 1019.9 1020.2 0.0
06/07:00am 4.3 -1.1 2.3 87 0.8 E 20 26 11 14 1019.5 1019.8 0.0
06/06:30am 4.4 -1.4 2.4 87 0.8 E 22 28 12 15 1019.4 1019.7 0.0
06/06:00am 4.4 -0.9 1.9 84 1.0 E 19 22 10 12 1019.1 1019.4 0.0
06/05:30am 4.4 -0.2 1.8 83 1.0 E 15 20 8 11 1019.2 1019.5 0.0
06/05:00am 4.1 -0.1 1.6 84 1.0 E 13 19 7 10 1019.6 1019.9 0.0
06/04:30am 4.2 0.0 1.6 83 1.0 E 13 19 7 10 1019.5 1019.8 0.0
06/04:00am 3.8 0.0 1.5 85 0.9 E 11 13 6 7 1019.5 1019.8 0.0
06/03:30am 4.1 0.3 1.6 84 1.0 ENE 11 15 6 8 1019.7 1020.0 0.0
06/03:00am 5.0 0.6 2.7 85 1.0 ENE 15 19 8 10 1019.7 1020.0 0.0
06/02:30am 5.3 0.6 3.0 85 1.0 E 17 20 9 11 1019.6 1019.9 0.0
06/02:00am 5.3 0.5 2.8 84 1.0 E 17 20 9 11 1019.6 1019.9 0.0
06/01:30am 5.2 0.5 3.1 86 0.9 E 17 22 9 12 1019.7 1020.0 0.0
06/01:00am 5.4 1.0 2.8 83 1.1 E 15 20 8 11 1019.4 1019.7 0.0
06/12:30am 5.1 0.7 2.8 85 1.0 ESE 15 17 8 9 1019.5 1019.8 0.0
06/12:00am 5.7 1.4 3.0 83 1.1 SE 15 22 8 12 1019.6 1019.9 0.0
 
Date/Time
CST
Temp
°C
App
Temp
°C
Dew
Point
°C
Rel
Hum
%
Delta-T
°C
Wind Press
QNH
hPa
Press
MSL
hPa
Rain since
9am
mm
Dir  Spd
km/h
Gust
km/h
Spd
kts
Gust
kts
05/11:30pm 5.4 1.4 3.1 85 1.0 ESE 13 17 7 9 1019.5 1019.8 0.0
05/11:00pm 4.8 0.7 2.2 83 1.1 ESE 13 15 7 8 1019.7 1020.0 0.0
05/10:30pm 4.9 0.7 1.9 81 1.2 ESE 13 17 7 9 1019.8 1020.1 0.0
05/10:00pm 4.8 0.2 1.7 80 1.3 ESE 15 17 8 9 1019.8 1020.1 0.0
05/09:30pm 4.6 0.0 1.5 80 1.2 ESE 15 17 8 9 1019.7 1020.0 0.0
05/09:00pm 5.3 0.8 2.0 79 1.3 ESE 15 19 8 10 1019.4 1019.7 0.0
05/08:30pm 5.2 0.7 1.9 79 1.3 ESE 15 20 8 11 1019.3 1019.6 0.0
05/08:00pm 5.6 0.3 1.9 77 1.5 SE 19 24 10 13 1018.9 1019.2 0.0
05/07:30pm 5.8 0.5 1.9 76 1.6 SE 19 24 10 13 1019.0 1019.3 0.0
05/07:00pm 5.5 0.2 1.8 77 1.5 SE 19 22 10 12 1018.9 1019.2 0.0
05/06:30pm 5.3 0.3 1.4 76 1.6 ESE 17 20 9 11 1019.0 1019.3 0.0
05/06:00pm 5.4 0.8 1.3 75 1.7 ESE 15 19 8 10 1019.0 1019.3 0.0
05/05:30pm 6.0 1.4 1.7 74 1.8 SE 15 19 8 10 1019.0 1019.3 0.0
05/05:00pm 7.1 2.2 2.2 71 2.1 SE 17 22 9 12 1019.0 1019.3 0.0
05/04:30pm 7.7 3.2 2.4 69 2.2 ESE 15 19 8 10 1019.1 1019.4 0.0
05/04:00pm 8.0 2.8 2.5 68 2.3 ESE 19 26 10 14 1018.8 1019.1 0.0
05/03:30pm 8.4 3.0 1.1 60 3.0 ESE 19 24 10 13 1018.8 1019.1 0.0
05/03:00pm 8.8 3.4 1.2 59 3.2 ESE 19 26 10 14 1018.7 1019.0 0.0
05/02:30pm 9.0 4.2 0.5 55 3.5 ESE 15 24 8 13 1018.6 1018.9 0.0
05/02:00pm 9.4 5.2 1.8 59 3.2 ESE 13 20 7 11 1018.9 1019.2 0.0
05/01:30pm 9.2 4.6 1.4 58 3.3 ESE 15 22 8 12 1019.3 1019.6 0.0

Other formats

Comma delimited format used in spreadsheet applications
http://www.bom.gov.au/fwo/IDS60801/IDS60801.94811.axf

JavaScript Object Notation format (JSON) in row-major order
http://www.bom.gov.au/fwo/IDS60801/IDS60801.94811.json

Data quality

Most of these data are generated automatically and are frequently updated. Quality checks on data are not normally performed. It is possible for incorrect values to appear. Refer to information at About Latest Weather Observations and please check the disclaimer before using these data.